createdAt,value
2022-09-17T00:02:39.460Z,54.50
2022-09-17T00:05:05.882Z,54.50
2022-09-17T00:07:32.296Z,54.80
2022-09-17T00:09:58.718Z,54.20
2022-09-17T00:14:52.071Z,54.80
2022-09-17T00:17:18.472Z,54.60
2022-09-17T00:19:44.868Z,54.60
2022-09-17T00:22:11.288Z,54.70
2022-09-17T00:24:37.690Z,54.50
2022-09-17T00:27:04.097Z,54.40
2022-09-17T00:29:30.558Z,54.70
2022-09-17T00:31:56.974Z,54.40
2022-09-17T00:34:23.366Z,54.40
2022-09-17T00:36:49.776Z,54.60
2022-09-17T00:39:16.177Z,54.50
2022-09-17T00:41:42.618Z,54.40
2022-09-17T00:44:09.019Z,53.50
2022-09-17T00:46:35.483Z,54.10
2022-09-17T00:49:01.916Z,54.60
2022-09-17T00:51:28.317Z,54.20
2022-09-17T00:53:54.717Z,54.50
2022-09-17T00:56:21.106Z,54.40
2022-09-17T00:58:47.514Z,54.60
2022-09-17T01:01:13.937Z,54.30
2022-09-17T01:03:40.399Z,54.30
2022-09-17T01:06:06.813Z,54.60
2022-09-17T01:08:33.214Z,54.40
2022-09-17T01:13:26.566Z,54.20
2022-09-17T01:15:53.002Z,54.40
2022-09-17T01:18:19.450Z,54.10
2022-09-17T01:20:45.873Z,54.30
2022-09-17T01:23:12.274Z,54.30
2022-09-17T01:25:38.818Z,54.40
2022-09-17T01:28:05.213Z,54.50
2022-09-17T01:30:31.630Z,54.30
2022-09-17T01:32:58.034Z,54.20
2022-09-17T01:37:51.367Z,54.40
2022-09-17T01:40:17.841Z,54.50
2022-09-17T01:42:44.274Z,54.30
2022-09-17T01:45:10.675Z,54.40
2022-09-17T01:47:37.107Z,54.10
2022-09-17T01:50:03.496Z,54.30
2022-09-17T01:52:29.890Z,54.40
2022-09-17T01:54:56.293Z,54.20
2022-09-17T01:57:22.705Z,54.50
2022-09-17T01:59:49.112Z,54.40
2022-09-17T02:04:42.538Z,54.40
2022-09-17T02:07:08.945Z,54.00
2022-09-17T02:09:35.349Z,54.30
2022-09-17T02:12:01.737Z,54.60
2022-09-17T02:14:28.129Z,54.30
2022-09-17T02:16:54.555Z,54.30
2022-09-17T02:19:21.095Z,53.70
2022-09-17T02:21:47.500Z,53.90
2022-09-17T02:24:13.904Z,54.40
2022-09-17T02:26:40.298Z,54.40
2022-09-17T02:31:33.754Z,54.50
2022-09-17T02:34:00.208Z,54.00
2022-09-17T02:36:26.649Z,54.20
2022-09-17T02:38:53.046Z,54.70
2022-09-17T02:41:19.455Z,54.60
2022-09-17T02:43:45.862Z,54.20
2022-09-17T02:46:12.305Z,54.30
2022-09-17T02:48:38.759Z,54.20
2022-09-17T02:51:05.170Z,54.30
2022-09-17T02:53:31.586Z,54.40
2022-09-17T02:55:58.060Z,54.30
2022-09-17T02:58:24.456Z,54.40
2022-09-17T03:00:50.915Z,54.00
2022-09-17T03:03:17.442Z,54.40
2022-09-17T03:08:10.793Z,54.50
2022-09-17T03:10:37.233Z,54.00
2022-09-17T03:13:03.630Z,53.90
2022-09-17T03:15:30.028Z,54.40
2022-09-17T03:17:56.450Z,54.40
2022-09-17T03:22:49.806Z,54.20
2022-09-17T03:25:16.215Z,54.30
2022-09-17T03:27:42.626Z,54.30
2022-09-17T03:30:09.033Z,54.30
2022-09-17T03:32:35.432Z,54.20
2022-09-17T03:35:01.847Z,54.10
2022-09-17T03:37:32.765Z,54.40
2022-09-17T03:39:59.619Z,54.30
2022-09-17T03:42:26.099Z,54.00
2022-09-17T03:44:52.513Z,54.50
2022-09-17T03:47:18.911Z,53.90
2022-09-17T03:49:45.324Z,53.80
2022-09-17T03:52:11.730Z,54.20
2022-09-17T03:54:38.170Z,54.40
2022-09-17T03:57:04.568Z,54.40
2022-09-17T03:59:30.964Z,53.80
2022-09-17T04:01:57.467Z,54.20
2022-09-17T04:04:23.964Z,54.40
2022-09-17T04:09:17.309Z,53.90
2022-09-17T04:11:43.725Z,54.00
2022-09-17T04:14:10.127Z,54.10
2022-09-17T04:16:36.564Z,53.60
2022-09-17T04:19:02.957Z,53.70
2022-09-17T04:21:29.353Z,54.10
2022-09-17T04:23:55.755Z,53.90
2022-09-17T04:26:22.157Z,54.30
2022-09-17T04:28:48.782Z,54.00
2022-09-17T04:31:15.247Z,53.90
2022-09-17T04:33:41.678Z,54.20
2022-09-17T04:36:08.111Z,54.40
2022-09-17T04:38:34.545Z,53.80
2022-09-17T04:41:00.937Z,54.20
2022-09-17T04:43:27.329Z,53.60
2022-09-17T04:45:55.544Z,54.50
2022-09-17T04:48:21.978Z,53.70
2022-09-17T04:50:48.433Z,53.80
2022-09-17T04:53:14.860Z,53.60
2022-09-17T04:55:41.353Z,52.80
2022-09-17T05:00:34.976Z,53.90
2022-09-17T05:03:01.410Z,54.20
2022-09-17T05:05:27.818Z,53.80
2022-09-17T05:07:54.226Z,53.90
2022-09-17T05:10:20.613Z,54.00
2022-09-17T05:12:47.021Z,53.50
2022-09-17T05:22:34.271Z,53.50
2022-09-17T05:25:00.671Z,53.60
2022-09-17T05:27:27.097Z,53.70
2022-09-17T05:34:47.386Z,53.80
2022-09-17T05:37:13.798Z,53.90
2022-09-17T05:39:40.208Z,53.80
2022-09-17T05:42:06.611Z,53.90
2022-09-17T05:44:33.001Z,53.70
2022-09-17T05:46:59.470Z,53.80
2022-09-17T05:49:25.943Z,53.90
2022-09-17T05:51:52.360Z,54.00
2022-09-17T05:54:18.752Z,53.70
2022-09-17T05:56:45.154Z,53.90
2022-09-17T05:59:11.554Z,53.70
2022-09-17T06:01:38.023Z,53.60
2022-09-17T06:04:04.471Z,54.00
2022-09-17T06:06:30.907Z,53.60
2022-09-17T06:08:57.415Z,53.50
2022-09-17T06:11:23.849Z,53.90
2022-09-17T06:13:50.278Z,53.30
2022-09-17T06:16:16.720Z,53.80
2022-09-17T06:18:43.154Z,53.30
2022-09-17T06:23:36.497Z,53.20
2022-09-17T06:26:02.900Z,53.70
2022-09-17T06:28:29.301Z,53.70
2022-09-17T06:30:55.719Z,53.80
2022-09-17T06:35:49.065Z,53.30
2022-09-17T06:38:15.465Z,53.70
2022-09-17T06:40:42.013Z,53.60
2022-09-17T06:43:09.266Z,53.60
2022-09-17T06:45:35.680Z,53.70
2022-09-17T06:48:02.090Z,54.00
2022-09-17T06:50:28.484Z,54.40
2022-09-17T06:52:54.892Z,54.30
2022-09-17T06:55:21.281Z,54.00
2022-09-17T06:57:47.686Z,54.30
2022-09-17T07:00:14.098Z,54.30
2022-09-17T07:02:40.497Z,54.40
2022-09-17T07:05:06.901Z,54.20
2022-09-17T07:10:00.254Z,54.10
2022-09-17T07:12:26.661Z,53.80
2022-09-17T07:14:53.079Z,54.00
2022-09-17T07:17:19.493Z,54.30
2022-09-17T07:22:12.849Z,54.30
2022-09-17T07:24:39.306Z,54.30
2022-09-17T07:27:05.728Z,53.80
2022-09-17T07:31:59.151Z,54.40
2022-09-17T07:34:25.586Z,54.40
2022-09-17T07:36:51.990Z,54.20
2022-09-17T07:39:18.417Z,54.60
2022-09-17T07:41:44.837Z,54.20
2022-09-17T07:44:11.240Z,54.30
2022-09-17T07:46:37.753Z,54.70
2022-09-17T07:49:04.232Z,54.30
2022-09-17T07:51:30.644Z,54.00
2022-09-17T07:53:57.047Z,54.30
2022-09-17T07:56:23.456Z,53.90
2022-09-17T07:58:49.853Z,54.30
2022-09-17T08:01:16.312Z,54.70
2022-09-17T08:03:42.769Z,54.20
2022-09-17T08:06:09.173Z,54.20
2022-09-17T08:08:35.569Z,54.10
2022-09-17T08:13:29.011Z,54.40
2022-09-17T08:15:55.480Z,54.30
2022-09-17T08:18:21.934Z,54.00
2022-09-17T08:20:48.334Z,53.90
2022-09-17T08:25:41.691Z,53.90
2022-09-17T08:28:08.094Z,54.40
2022-09-17T08:30:34.523Z,54.20
2022-09-17T08:33:00.937Z,54.30
2022-09-17T08:37:56.660Z,54.20
2022-09-17T08:45:17.050Z,54.00
2022-09-17T08:50:10.414Z,54.20
2022-09-17T08:52:36.827Z,53.80
2022-09-17T08:55:03.251Z,54.10
2022-09-17T08:57:29.754Z,53.90
2022-09-17T09:02:23.273Z,52.60
2022-09-17T09:04:49.776Z,54.20
2022-09-17T09:09:43.120Z,52.60
2022-09-17T09:12:09.542Z,53.80
2022-09-17T09:14:35.951Z,54.00
2022-09-17T09:19:29.309Z,54.10
2022-09-17T09:21:55.734Z,53.80
2022-09-17T09:24:22.150Z,53.90
2022-09-17T09:26:48.593Z,54.00
2022-09-17T09:31:41.982Z,53.50
2022-09-17T09:34:08.391Z,54.10
2022-09-17T09:36:34.790Z,54.00
2022-09-17T09:39:01.210Z,53.40
2022-09-17T09:41:27.622Z,54.40
2022-09-17T09:44:03.580Z,53.80
2022-09-17T09:46:30.792Z,53.90
2022-09-17T09:48:57.242Z,54.40
2022-09-17T09:51:23.653Z,54.00
2022-09-17T09:53:50.079Z,54.30
2022-09-17T09:56:16.472Z,53.50
2022-09-17T09:58:42.893Z,53.30
2022-09-17T10:01:09.301Z,53.30
2022-09-17T10:03:35.703Z,53.80
2022-09-17T10:06:02.117Z,53.60
2022-09-17T10:10:55.481Z,53.70
2022-09-17T10:13:21.888Z,53.70
2022-09-17T10:15:48.313Z,54.20
2022-09-17T10:18:14.734Z,53.80
2022-09-17T10:20:41.147Z,53.90
2022-09-17T10:23:07.574Z,54.00
2022-09-17T10:25:33.975Z,54.10
2022-09-17T10:28:00.398Z,54.20
2022-09-17T10:30:26.800Z,53.70
2022-09-17T10:32:53.209Z,53.60
2022-09-17T10:37:46.565Z,53.50
2022-09-17T10:40:13.023Z,54.10
2022-09-17T10:42:39.449Z,54.20
2022-09-17T10:47:32.810Z,53.80
2022-09-17T10:49:59.215Z,53.80
2022-09-17T10:52:25.625Z,53.90
2022-09-17T10:54:52.046Z,53.20
2022-09-17T10:59:45.437Z,52.90
2022-09-17T11:02:11.957Z,53.40
2022-09-17T11:04:38.412Z,53.10
2022-09-17T11:07:04.827Z,53.80
2022-09-17T12:44:02.219Z,53.10
2022-09-17T12:48:55.690Z,53.00
2022-09-17T12:51:22.096Z,52.60
2022-09-17T12:53:48.581Z,52.50
2022-09-17T12:56:15.044Z,52.80
2022-09-17T13:01:08.574Z,53.40
2022-09-17T13:03:35.097Z,52.90
2022-09-17T13:08:28.418Z,53.30
2022-09-17T13:10:54.887Z,53.20
2022-09-17T13:13:21.303Z,52.90
2022-09-17T13:18:26.192Z,52.80
2022-09-17T13:20:53.688Z,52.70
2022-09-17T13:23:20.120Z,52.50
2022-09-17T13:25:46.544Z,52.30
2022-09-17T13:28:12.985Z,52.80
2022-09-17T13:33:06.310Z,52.70
2022-09-17T13:37:59.611Z,52.50
2022-09-17T13:40:26.122Z,53.30
2022-09-17T13:42:52.614Z,53.20
2022-09-17T13:47:45.972Z,53.10
2022-09-17T13:50:12.380Z,52.70
2022-09-17T13:52:38.782Z,53.00
2022-09-17T13:55:05.182Z,51.60
2022-09-17T13:59:58.490Z,51.90
2022-09-17T14:02:28.714Z,51.20
2022-09-17T14:04:57.170Z,52.70
2022-09-17T14:07:23.579Z,52.80
2022-09-17T14:12:16.891Z,52.80
2022-09-17T14:14:43.293Z,52.90
2022-09-17T14:17:09.686Z,53.00
2022-09-17T14:19:36.113Z,53.40
2022-09-17T14:24:29.415Z,53.20
2022-09-17T14:26:55.874Z,53.00
2022-09-17T14:29:22.290Z,53.20
2022-09-17T14:31:48.796Z,51.70
2022-09-17T14:34:15.233Z,52.80
2022-09-17T14:36:41.630Z,52.80
2022-09-17T14:39:08.038Z,52.90
2022-09-17T14:41:34.429Z,53.00
2022-09-17T14:44:00.822Z,52.90
2022-09-17T14:46:27.249Z,52.80
2022-09-17T14:51:20.632Z,53.40
2022-09-17T14:53:47.021Z,52.80
2022-09-17T14:56:13.423Z,52.90
2022-09-17T14:58:39.837Z,53.00
2022-09-17T15:01:06.231Z,52.90
2022-09-17T15:03:32.661Z,53.50
2022-09-17T15:05:59.057Z,53.30
2022-09-17T15:08:25.473Z,52.90
2022-09-17T15:10:51.882Z,53.90
2022-09-17T15:15:45.240Z,54.80
2022-09-17T15:18:11.672Z,54.40
2022-09-17T15:20:38.076Z,54.00
2022-09-17T15:23:04.470Z,54.00
2022-09-17T15:25:30.870Z,53.70
2022-09-17T15:27:57.271Z,53.60
2022-09-17T15:30:23.661Z,53.80
2022-09-17T15:32:50.063Z,54.30
2022-09-17T15:35:16.466Z,53.20
2022-09-17T15:37:42.876Z,53.90
2022-09-17T15:40:09.327Z,54.00
2022-09-17T15:42:35.742Z,54.10
2022-09-17T15:45:02.150Z,54.20
2022-09-17T15:47:28.587Z,55.00
2022-09-17T15:49:54.979Z,54.70
2022-09-17T15:52:21.376Z,54.40
2022-09-17T15:57:14.690Z,55.20
2022-09-17T15:59:41.111Z,54.90
2022-09-17T16:02:07.648Z,54.90
2022-09-17T16:04:34.141Z,54.20
2022-09-17T16:07:00.551Z,53.80
2022-09-17T16:09:26.982Z,54.10
2022-09-17T16:11:53.380Z,53.30
2022-09-17T16:14:19.799Z,54.20
2022-09-17T16:16:46.209Z,53.90
2022-09-17T16:19:12.660Z,53.80
2022-09-17T16:21:39.121Z,53.60
2022-09-17T16:24:05.518Z,53.90
2022-09-17T16:26:31.914Z,53.50
2022-09-17T16:28:58.421Z,54.10
2022-09-17T16:31:24.873Z,53.10
2022-09-17T16:36:18.209Z,53.20
2022-09-17T16:38:44.616Z,53.90
2022-09-17T16:41:11.017Z,53.60
2022-09-17T16:43:37.437Z,53.60
2022-09-17T16:46:03.843Z,54.40
2022-09-17T16:50:57.141Z,53.90
2022-09-17T16:53:23.545Z,53.80
2022-09-17T16:55:49.956Z,54.00
2022-09-17T16:58:16.355Z,54.20
2022-09-17T17:03:09.834Z,54.10
2022-09-17T17:05:36.298Z,54.00
2022-09-17T17:10:33.330Z,53.50
2022-09-17T17:12:59.727Z,53.60
2022-09-17T17:15:26.129Z,53.80
2022-09-17T17:17:52.541Z,54.00
2022-09-17T17:20:18.952Z,54.30
2022-09-17T17:25:12.274Z,54.00
2022-09-17T17:27:38.676Z,53.50
2022-09-17T17:30:05.069Z,53.80
2022-09-17T17:32:31.475Z,53.50
2022-09-17T17:34:57.875Z,53.80
2022-09-17T17:37:24.277Z,53.10
2022-09-17T17:39:50.789Z,53.40
2022-09-17T17:42:17.244Z,53.60
2022-09-17T17:44:43.655Z,53.70
2022-09-17T17:47:10.067Z,53.90
2022-09-17T17:49:36.479Z,54.00
2022-09-17T17:52:02.890Z,54.00
2022-09-17T17:54:29.305Z,54.30
2022-09-17T17:56:55.711Z,54.00
2022-09-17T17:59:22.121Z,53.60
2022-09-17T18:01:48.636Z,53.60
2022-09-17T18:06:42.060Z,53.70
2022-09-17T18:09:08.493Z,53.70
2022-09-17T18:11:34.940Z,53.90
2022-09-17T18:14:01.378Z,53.50
2022-09-17T18:16:27.847Z,53.60
2022-09-17T18:18:54.259Z,53.70
2022-09-17T18:21:20.693Z,53.30
2022-09-17T18:23:47.099Z,53.70
2022-09-17T18:26:13.563Z,53.70
2022-09-17T18:28:40.014Z,53.80
2022-09-17T18:31:06.450Z,53.80
2022-09-17T18:35:59.771Z,53.90
2022-09-17T18:38:26.180Z,54.00
2022-09-17T18:40:52.658Z,54.10
2022-09-17T18:43:19.147Z,53.70
2022-09-17T18:45:45.550Z,53.60
2022-09-17T18:48:11.954Z,53.50
2022-09-17T18:50:38.370Z,53.40
2022-09-17T18:53:04.761Z,53.80
2022-09-17T18:55:31.175Z,53.10
2022-09-17T18:57:57.568Z,53.40
2022-09-17T19:00:23.992Z,54.00
2022-09-17T19:02:50.458Z,54.00
2022-09-17T19:05:16.899Z,53.50
2022-09-17T19:07:43.304Z,53.80
2022-09-17T19:10:09.714Z,53.90
2022-09-17T19:12:36.130Z,53.20
2022-09-17T19:15:02.555Z,53.10
2022-09-17T19:17:29.005Z,53.50
2022-09-17T19:19:55.441Z,53.40
2022-09-17T19:24:48.729Z,53.70
2022-09-17T19:27:15.151Z,53.80
2022-09-17T19:29:41.552Z,53.90
2022-09-17T19:32:08.997Z,53.10
2022-09-17T19:34:35.412Z,53.50
2022-09-17T19:37:01.821Z,53.50
2022-09-17T19:39:28.241Z,53.40
2022-09-17T19:44:21.549Z,53.40
2022-09-17T19:46:47.962Z,53.10
2022-09-17T19:49:14.380Z,52.20
2022-09-17T19:51:40.793Z,53.50
2022-09-17T19:54:07.195Z,53.20
2022-09-17T19:56:33.603Z,53.40
2022-09-17T19:59:00.015Z,53.30
2022-09-17T20:01:26.476Z,53.10
2022-09-17T20:03:52.918Z,53.20
2022-09-17T20:08:47.167Z,53.40
2022-09-17T20:13:40.687Z,53.70
2022-09-17T20:16:07.132Z,53.70
2022-09-17T20:18:33.553Z,53.40
2022-09-17T20:20:59.972Z,53.30
2022-09-17T20:25:53.274Z,53.30
2022-09-17T20:28:19.675Z,53.10
2022-09-17T20:30:46.174Z,53.70
2022-09-17T20:33:12.643Z,53.40
2022-09-17T20:35:39.064Z,53.20
2022-09-17T20:40:54.942Z,53.80
2022-09-17T20:43:21.350Z,53.20
2022-09-17T20:45:47.753Z,53.10
2022-09-17T20:48:14.349Z,53.10
2022-09-17T20:50:40.772Z,53.40
2022-09-17T20:55:34.129Z,53.10
2022-09-17T20:58:00.537Z,53.00
2022-09-17T21:00:26.933Z,53.80
2022-09-17T21:02:53.343Z,53.40
2022-09-17T21:05:19.737Z,53.70
2022-09-17T21:07:46.145Z,51.80
2022-09-17T21:10:12.558Z,53.40
2022-09-17T21:12:39.039Z,53.10
2022-09-17T21:15:05.456Z,52.20
2022-09-17T21:17:31.882Z,53.20
2022-09-17T21:19:58.286Z,53.40
2022-09-17T21:22:24.679Z,53.70
2022-09-17T21:24:51.076Z,53.20
2022-09-17T21:27:17.493Z,52.90
2022-09-17T21:29:43.915Z,53.40
2022-09-17T21:32:10.310Z,53.30
2022-09-17T21:34:36.714Z,53.10
2022-09-17T21:39:30.008Z,53.70
2022-09-17T21:41:56.424Z,53.30
2022-09-17T21:44:22.836Z,53.00
2022-09-17T21:49:16.261Z,53.00
2022-09-17T21:51:42.672Z,53.20
2022-09-17T21:54:09.100Z,54.10
2022-09-17T21:56:35.520Z,53.50
2022-09-17T22:01:28.872Z,53.60
2022-09-17T22:03:55.315Z,53.40
2022-09-17T22:06:21.718Z,52.90
2022-09-17T22:08:48.158Z,53.70
2022-09-17T22:11:14.730Z,53.30
2022-09-17T22:13:41.283Z,51.90
2022-09-17T22:16:08.120Z,53.20
2022-09-17T22:18:34.924Z,53.00
2022-09-17T22:21:01.321Z,53.30
2022-09-17T22:23:27.769Z,53.40
2022-09-17T22:25:54.341Z,53.20
2022-09-17T22:30:48.406Z,53.20
2022-09-17T22:33:14.968Z,53.40
2022-09-17T22:38:08.535Z,53.00
2022-09-17T22:40:35.002Z,53.50
2022-09-17T22:43:01.460Z,52.70
2022-09-17T22:45:27.909Z,53.30
2022-09-17T22:47:54.304Z,53.60
2022-09-17T22:50:20.688Z,52.20
2022-09-17T22:52:47.082Z,53.30
2022-09-17T22:55:13.496Z,52.90
2022-09-17T23:00:06.894Z,52.60
2022-09-17T23:02:33.335Z,52.20
2022-09-17T23:04:59.790Z,52.20
2022-09-17T23:07:26.220Z,53.50
2022-09-17T23:12:19.628Z,53.10
2022-09-17T23:14:46.034Z,52.00
2022-09-17T23:17:12.454Z,53.10
2022-09-17T23:22:05.797Z,52.10
2022-09-17T23:26:59.119Z,52.70
2022-09-17T23:29:25.531Z,52.90
2022-09-17T23:31:51.925Z,53.30
2022-09-17T23:34:18.398Z,53.10
2022-09-17T23:36:44.804Z,53.20
2022-09-17T23:39:11.207Z,53.00
2022-09-17T23:41:37.678Z,52.20
2022-09-17T23:44:04.129Z,52.10
2022-09-17T23:46:30.567Z,51.50
2022-09-17T23:48:57.025Z,53.40
2022-09-17T23:53:50.334Z,53.00
2022-09-17T23:56:16.738Z,53.40
2022-09-17T23:58:43.150Z,52.90
